Terminal Aerodrome Forecast
Issued by NWS Caribou, ME

Home | Current Version | Previous Version | Text Only | Print | Product List | Glossary On
Versions: 1 2 3 4 5 6 7 8 9 10 11 12 13
000
FTUS41 KCAR 010545
TAFCAR
TAF
KCAR 010545Z 0106/0206 22005KT P6SM SKC
     FM011600 20009KT P6SM BKN030
     FM012000 20009KT P6SM SCT030 OVC100
     FM020400 18004KT 2SM -SN OVC040=

USA.gov is the U.S. government's official web portal to all federal, state and local government web resources and services.